Time;durP1;ratioP1;P1;durP2;ratioP2;P2;SDS_P1;SDS_P2;PMS_P1;PMS_P2;Temp;Humidity;BMP_temperature;BMP_pressure;BME280_temperature;BME280_humidity;BME280_pressure;Samples;Min_cycle;Max_cycle;Signal;HPM_P1;HPM_P2
2023/07/29 00:00:42;;;;;;;3.80;1.67;;;;;18.20;100239.00;;;;10404535;28;20912;-79
2023/07/29 00:05:44;;;;;;;2.83;1.45;;;;;18.10;100254.00;;;;10404212;28;20210;-78
2023/07/29 00:10:45;;;;;;;5.93;1.80;;;;;18.10;100255.00;;;;10391086;28;20196;-78
2023/07/29 00:15:47;;;;;;;2.42;1.40;;;;;18.20;100257.00;;;;10377697;28;20832;-76
2023/07/29 00:20:48;;;;;;;2.95;1.55;;;;;18.30;100262.00;;;;10411365;28;20283;-78
2023/07/29 00:25:50;;;;;;;1.35;1.25;;;;;18.30;100262.00;;;;10392079;28;20209;-78
2023/07/29 00:30:51;;;;;;;1.52;1.20;;;;;18.30;100262.00;;;;10389592;28;20247;-79
2023/07/29 00:35:55;;;;;;;4.25;1.50;;;;;18.20;100266.00;;;;10396165;28;20895;-75
2023/07/29 00:40:58;;;;;;;2.22;1.30;;;;;18.20;100262.00;;;;10415835;28;20335;-79
2023/07/29 00:46:00;;;;;;;2.28;1.15;;;;;18.10;100271.00;;;;10370247;28;20197;-76
2023/07/29 00:51:02;;;;;;;2.25;1.58;;;;;18.00;100283.00;;;;10403402;28;20657;-77
2023/07/29 00:56:03;;;;;;;2.50;1.42;;;;;17.90;100264.00;;;;10389065;28;20909;-79
2023/07/29 01:01:05;;;;;;;1.95;1.60;;;;;17.80;100264.00;;;;10364615;28;20204;-78
2023/07/29 01:06:23;;;;;;;1.63;1.33;;;;;17.70;100264.00;;;;10394712;28;20292;-78
2023/07/29 01:11:36;;;;;;;3.95;1.52;;;;;17.70;100255.00;;;;10411237;28;20200;-79
2023/07/29 01:16:52;;;;;;;2.45;1.30;;;;;17.60;100256.00;;;;10377375;28;20277;-78
2023/07/29 01:21:55;;;;;;;2.63;1.42;;;;;17.50;100235.00;;;;10410693;28;20216;-76
2023/07/29 01:26:57;;;;;;;4.30;1.48;;;;;17.50;100224.00;;;;10397521;28;20205;-76
2023/07/29 01:32:06;;;;;;;4.00;1.83;;;;;17.40;100221.00;;;;10405188;28;20237;-80
2023/07/29 01:37:13;;;;;;;6.00;1.77;;;;;17.30;100219.00;;;;10422253;28;20224;-77
2023/07/29 01:42:14;;;;;;;2.17;1.48;;;;;17.20;100240.00;;;;10415610;28;20315;-80
2023/07/29 01:47:16;;;;;;;4.50;1.45;;;;;17.10;100242.00;;;;10425979;28;20209;-75
2023/07/29 01:52:18;;;;;;;2.67;1.70;;;;;17.10;100248.00;;;;10414501;28;20202;-79
2023/07/29 01:57:19;;;;;;;6.45;1.77;;;;;17.00;100247.00;;;;10397512;28;20247;-77
2023/07/29 02:02:21;;;;;;;5.32;2.13;;;;;17.00;100247.00;;;;10399418;28;21305;-76
2023/07/29 02:07:23;;;;;;;2.28;1.80;;;;;17.10;100233.00;;;;10410581;28;20961;-77
2023/07/29 02:12:24;;;;;;;2.45;1.98;;;;;17.10;100246.00;;;;10393196;28;20982;-76
2023/07/29 02:17:26;;;;;;;3.40;1.92;;;;;17.00;100234.00;;;;10419953;28;20949;-77
2023/07/29 02:22:27;;;;;;;3.65;1.63;;;;;16.90;100228.00;;;;10395710;28;20209;-77
2023/07/29 02:27:28;;;;;;;4.05;1.70;;;;;16.90;100223.00;;;;10412055;28;20198;-76
2023/07/29 02:32:29;;;;;;;2.35;2.03;;;;;16.80;100236.00;;;;10418846;28;20685;-79
2023/07/29 02:37:32;;;;;;;4.45;2.00;;;;;16.90;100238.00;;;;10425490;28;20220;-80
2023/07/29 02:42:34;;;;;;;2.30;1.95;;;;;16.90;100218.00;;;;10403939;28;20331;-76
2023/07/29 02:47:37;;;;;;;5.80;2.15;;;;;16.90;100231.00;;;;10380069;28;20269;-77
2023/07/29 02:52:38;;;;;;;3.50;1.98;;;;;16.80;100235.00;;;;10392233;28;20196;-77
2023/07/29 02:57:40;;;;;;;6.30;1.95;;;;;16.90;100221.00;;;;10413625;28;20244;-79
2023/07/29 03:02:41;;;;;;;3.03;2.17;;;;;16.90;100224.00;;;;10422849;28;20213;-80
2023/07/29 03:07:43;;;;;;;4.15;2.00;;;;;16.90;100214.00;;;;10398556;28;20895;-76
2023/07/29 03:12:45;;;;;;;3.08;1.77;;;;;16.80;100174.00;;;;10373129;28;20258;-78
2023/07/29 03:17:46;;;;;;;5.00;1.77;;;;;16.80;100202.00;;;;10375577;28;20224;-78
2023/07/29 03:22:47;;;;;;;2.67;1.70;;;;;16.70;100192.00;;;;10389998;28;20772;-77
2023/07/29 03:27:49;;;;;;;4.72;1.92;;;;;16.70;100202.00;;;;10387713;28;20404;-79
2023/07/29 03:32:51;;;;;;;1.85;1.65;;;;;16.60;100202.00;;;;10399923;28;21116;-77
2023/07/29 03:37:52;;;;;;;6.20;2.05;;;;;16.60;100195.00;;;;10397192;28;20197;-76
2023/07/29 03:42:54;;;;;;;3.38;1.65;;;;;16.60;100203.00;;;;10411121;28;20227;-79
2023/07/29 03:47:56;;;;;;;4.35;1.80;;;;;16.60;100221.00;;;;10395333;28;20662;-76
2023/07/29 03:52:57;;;;;;;3.80;1.75;;;;;16.60;100205.00;;;;10394765;28;20700;-77
2023/07/29 03:57:59;;;;;;;3.05;1.77;;;;;16.60;100222.00;;;;10394000;28;21569;-76
2023/07/29 04:03:02;;;;;;;7.22;1.60;;;;;16.70;100225.00;;;;10370719;28;20293;-78
2023/07/29 04:08:03;;;;;;;2.13;1.90;;;;;16.70;100239.00;;;;10391636;28;20592;-76
2023/07/29 04:13:05;;;;;;;3.45;2.10;;;;;16.70;100247.00;;;;10391576;28;20835;-79
2023/07/29 04:18:06;;;;;;;6.72;2.22;;;;;16.70;100246.00;;;;10397422;28;21165;-76
2023/07/29 04:23:08;;;;;;;2.00;1.80;;;;;16.70;100241.00;;;;10393103;28;20200;-76
2023/07/29 04:28:09;;;;;;;2.10;1.90;;;;;16.70;100256.00;;;;10370452;28;20506;-78
2023/07/29 04:33:11;;;;;;;3.75;1.90;;;;;16.80;100253.00;;;;10407646;28;20227;-77
2023/07/29 04:38:12;;;;;;;3.08;1.92;;;;;16.90;100255.00;;;;10405939;28;20225;-76
2023/07/29 04:43:14;;;;;;;2.80;1.88;;;;;17.00;100254.00;;;;10392013;28;20992;-76
2023/07/29 04:48:15;;;;;;;4.68;2.05;;;;;17.10;100255.00;;;;10380628;28;20296;-77
2023/07/29 04:53:17;;;;;;;2.08;1.85;;;;;17.10;100255.00;;;;10365080;28;20231;-77
2023/07/29 04:58:18;;;;;;;5.15;1.90;;;;;17.10;100244.00;;;;10393593;28;20760;-77
2023/07/29 05:03:19;;;;;;;2.53;1.58;;;;;17.20;100247.00;;;;10386270;28;20216;-80
2023/07/29 05:08:21;;;;;;;5.70;2.53;;;;;17.30;100243.00;;;;10411588;28;20764;-80
2023/07/29 05:13:23;;;;;;;8.07;2.40;;;;;17.50;100236.00;;;;10408929;28;20703;-77
2023/07/29 05:18:24;;;;;;;2.55;1.75;;;;;17.50;100232.00;;;;10421800;28;20882;-76
2023/07/29 05:23:26;;;;;;;3.38;1.70;;;;;17.70;100236.00;;;;10400652;28;20331;-78
2023/07/29 05:28:28;;;;;;;1.80;1.58;;;;;17.90;100230.00;;;;10385469;28;20617;-76
2023/07/29 05:33:29;;;;;;;5.20;1.80;;;;;17.90;100221.00;;;;10402016;28;20227;-76
2023/07/29 05:38:31;;;;;;;2.75;1.60;;;;;18.00;100227.00;;;;10402967;28;21305;-80
2023/07/29 05:43:32;;;;;;;2.30;1.60;;;;;18.00;100247.00;;;;10399800;28;20251;-78
2023/07/29 05:48:33;;;;;;;1.73;1.40;;;;;18.40;100254.00;;;;10416173;28;20239;-76
2023/07/29 05:53:37;;;;;;;4.57;1.85;;;;;18.60;100251.00;;;;10395020;28;20239;-79
2023/07/29 05:58:38;;;;;;;4.68;1.55;;;;;18.80;100247.00;;;;10416152;28;20274;-80
2023/07/29 06:03:41;;;;;;;1.48;1.33;;;;;18.90;100244.00;;;;10388213;28;21967;-78
2023/07/29 06:08:43;;;;;;;2.58;1.52;;;;;19.20;100247.00;;;;10422730;28;20683;-77
2023/07/29 06:13:47;;;;;;;2.33;1.48;;;;;19.10;100246.00;;;;10387168;28;20331;-77
2023/07/29 06:18:49;;;;;;;2.85;1.63;;;;;19.00;100251.00;;;;10383922;28;20236;-78
2023/07/29 06:23:50;;;;;;;2.42;1.20;;;;;20.30;100237.00;;;;10405527;28;20212;-76
2023/07/29 06:28:51;;;;;;;2.38;1.50;;;;;21.40;100248.00;;;;10400782;28;20215;-79
2023/07/29 06:33:54;;;;;;;4.72;1.60;;;;;21.30;100261.00;;;;10420039;28;20220;-75
2023/07/29 06:38:55;;;;;;;2.20;1.02;;;;;21.30;100263.00;;;;10401758;28;20226;-80
2023/07/29 06:43:57;;;;;;;1.50;1.30;;;;;21.80;100257.00;;;;10392079;28;20202;-78
2023/07/29 06:48:58;;;;;;;1.02;1.02;;;;;22.00;100263.00;;;;10405341;28;20265;-77
2023/07/29 06:53:59;;;;;;;2.67;0.93;;;;;21.70;100262.00;;;;10396449;28;20323;-76
2023/07/29 06:59:01;;;;;;;1.95;1.13;;;;;22.00;100268.00;;;;10399872;28;21254;-80
2023/07/29 07:04:02;;;;;;;1.33;1.10;;;;;22.30;100265.00;;;;10399080;28;20805;-80
2023/07/29 07:09:04;;;;;;;1.60;1.33;;;;;22.30;100264.00;;;;10398031;28;20282;-78
2023/07/29 07:14:05;;;;;;;1.65;1.10;;;;;22.20;100276.00;;;;10380384;28;20220;-79
2023/07/29 07:19:07;;;;;;;1.27;1.17;;;;;22.20;100277.00;;;;10398915;28;21853;-80
2023/07/29 07:24:08;;;;;;;2.80;1.40;;;;;21.80;100285.00;;;;10411245;28;20209;-77
2023/07/29 07:29:09;;;;;;;1.20;1.10;;;;;21.30;100289.00;;;;10410498;28;20217;-79
2023/07/29 07:34:10;;;;;;;2.47;1.20;;;;;20.70;100301.00;;;;10414188;28;20719;-78
2023/07/29 07:39:12;;;;;;;2.80;1.25;;;;;20.20;100309.00;;;;10409010;28;20440;-78
2023/07/29 07:44:15;;;;;;;2.10;1.50;;;;;20.20;100300.00;;;;10417510;28;20321;-79
2023/07/29 07:49:16;;;;;;;6.05;1.38;;;;;20.50;100296.00;;;;10414982;28;20259;-78
2023/07/29 07:54:17;;;;;;;1.52;1.00;;;;;21.50;100296.00;;;;10417110;28;20500;-77
2023/07/29 07:59:19;;;;;;;4.13;1.38;;;;;22.30;100295.00;;;;10412483;28;20602;-77
2023/07/29 08:04:21;;;;;;;1.33;1.20;;;;;23.40;100276.00;;;;10419375;28;21216;-78
2023/07/29 08:09:22;;;;;;;2.45;1.10;;;;;25.00;100273.00;;;;10394409;28;20213;-78
2023/07/29 08:14:23;;;;;;;3.88;1.05;;;;;25.50;100284.00;;;;10400978;28;20224;-79
2023/07/29 08:19:25;;;;;;;2.28;1.25;;;;;25.70;100276.00;;;;10411958;28;20213;-80
2023/07/29 08:24:26;;;;;;;2.25;1.10;;;;;26.10;100279.00;;;;10400330;28;20694;-78
2023/07/29 08:29:27;;;;;;;3.88;1.05;;;;;26.90;100273.00;;;;10403761;28;20203;-78
2023/07/29 08:34:28;;;;;;;1.17;1.02;;;;;27.40;100250.00;;;;10417270;28;20486;-77
2023/07/29 08:39:30;;;;;;;2.95;1.10;;;;;27.40;100264.00;;;;10401586;28;20647;-76
2023/07/29 08:44:36;;;;;;;1.15;0.88;;;;;27.50;100273.00;;;;10410974;28;20215;-79
2023/07/29 08:49:38;;;;;;;0.90;0.90;;;;;27.10;100273.00;;;;10420595;28;20193;-79
2023/07/29 08:54:40;;;;;;;1.60;0.98;;;;;27.10;100267.00;;;;10415019;28;20224;-79
2023/07/29 08:59:41;;;;;;;3.97;1.33;;;;;28.00;100275.00;;;;10425768;28;20323;-79
2023/07/29 09:04:43;;;;;;;1.42;1.00;;;;;28.10;100273.00;;;;10423061;28;20213;-81
2023/07/29 09:09:44;;;;;;;2.55;1.35;;;;;27.40;100277.00;;;;10399926;28;20317;-78
2023/07/29 09:14:45;;;;;;;1.67;1.35;;;;;27.40;100278.00;;;;10416206;28;20258;-79
2023/07/29 09:19:51;;;;;;;3.00;1.95;;;;;27.80;100270.00;;;;10417675;28;20215;-78
2023/07/29 09:24:53;;;;;;;3.10;1.58;;;;;27.80;100278.00;;;;10419002;28;20267;-78
2023/07/29 09:29:56;;;;;;;6.35;1.55;;;;;27.90;100264.00;;;;10391012;28;20850;-79
2023/07/29 09:34:57;;;;;;;2.08;1.60;;;;;27.20;100274.00;;;;10421137;28;20252;-80
2023/07/29 09:39:58;;;;;;;2.50;1.55;;;;;26.60;100266.00;;;;10416309;28;20270;-78
2023/07/29 09:44:59;;;;;;;2.92;1.60;;;;;27.00;100270.00;;;;10403506;28;20564;-78
2023/07/29 09:50:01;;;;;;;7.80;1.98;;;;;26.60;100269.00;;;;10412446;28;20255;-78
2023/07/29 09:55:03;;;;;;;5.10;1.52;;;;;25.70;100262.00;;;;10413894;28;20221;-79
2023/07/29 10:00:10;;;;;;;1.48;1.25;;;;;25.00;100253.00;;;;10381604;28;20267;-77
2023/07/29 10:05:12;;;;;;;2.72;1.60;;;;;25.50;100259.00;;;;10400744;28;22093;-80
2023/07/29 10:10:13;;;;;;;2.72;1.55;;;;;27.00;100254.00;;;;10410763;28;21094;-79
2023/07/29 10:15:14;;;;;;;1.52;1.33;;;;;29.20;100239.00;;;;10395383;28;20865;-81
2023/07/29 10:20:16;;;;;;;2.90;1.42;;;;;30.70;100237.00;;;;10381046;28;20205;-81
2023/07/29 10:25:38;;;;;;;2.97;1.60;;;;;30.70;100258.00;;;;10417794;28;21016;-78
2023/07/29 10:30:40;;;;;;;2.80;1.33;;;;;30.60;100242.00;;;;10402739;28;20212;-79
2023/07/29 10:35:42;;;;;;;1.88;1.40;;;;;31.10;100231.00;;;;10396409;28;20217;-79
2023/07/29 10:40:49;;;;;;;1.63;1.30;;;;;29.80;100247.00;;;;10411303;28;21579;-79
2023/07/29 10:45:51;;;;;;;1.95;1.33;;;;;27.40;100241.00;;;;10393969;28;22494;-77
2023/07/29 10:51:34;;;;;;;3.22;1.40;;;;;25.00;100250.00;;;;10417712;28;20209;-77
2023/07/29 10:56:37;;;;;;;14.25;3.35;;;;;22.70;100257.00;;;;10415107;28;20700;-82
2023/07/29 11:01:42;;;;;;;6.68;2.97;;;;;22.10;100270.00;;;;10418624;28;21319;-80
2023/07/29 11:07:13;;;;;;;2.58;1.88;;;;;22.10;100262.00;;;;10381816;28;20204;-80
2023/07/29 11:18:00;;;;;;;3.70;2.40;;;;;21.50;100276.00;;;;10857298;23;20348;-81
2023/07/29 11:23:03;;;;;;;4.60;3.00;;;;;21.30;100279.00;;;;10387098;28;20204;-81
2023/07/29 11:28:04;;;;;;;3.42;3.10;;;;;22.60;100270.00;;;;10386669;28;20232;-79
2023/07/29 11:33:08;;;;;;;3.55;3.25;;;;;23.70;100277.00;;;;10379789;28;20567;-81
2023/07/29 11:38:15;;;;;;;3.78;3.22;;;;;23.50;100276.00;;;;10392856;28;20610;-77
2023/07/29 11:43:19;;;;;;;3.47;2.50;;;;;24.00;100270.00;;;;10417674;28;20213;-84
2023/07/29 11:48:27;;;;;;;3.78;2.05;;;;;25.10;100267.00;;;;10416986;28;20311;-78
2023/07/29 11:53:30;;;;;;;5.13;1.90;;;;;25.20;100265.00;;;;10401349;28;20407;-79
2023/07/29 11:58:32;;;;;;;1.80;1.70;;;;;25.60;100261.00;;;;10402441;28;20894;-79
2023/07/29 12:03:33;;;;;;;3.53;1.80;;;;;24.80;100263.00;;;;10412981;28;20937;-79
2023/07/29 12:08:34;;;;;;;2.28;2.08;;;;;24.00;100262.00;;;;10391016;28;20232;-78
2023/07/29 12:13:36;;;;;;;3.50;2.00;;;;;22.60;100261.00;;;;10411394;28;22236;-80
2023/07/29 12:18:38;;;;;;;3.38;2.38;;;;;20.50;100275.00;;;;10417006;28;20290;-79
2023/07/29 12:23:39;;;;;;;17.35;3.22;;;;;19.40;100274.00;;;;10411597;28;20298;-82
2023/07/29 12:28:45;;;;;;;14.65;4.88;;;;;18.90;100320.00;;;;10396380;28;20335;-81
2023/07/29 12:33:47;;;;;;;6.32;3.30;;;;;19.20;100295.00;;;;10374118;28;20233;-80
2023/07/29 12:38:48;;;;;;;5.18;4.22;;;;;21.30;100288.00;;;;10394534;28;20624;-80
2023/07/29 12:43:49;;;;;;;3.10;2.80;;;;;23.10;100285.00;;;;10412189;28;20209;-80
2023/07/29 12:48:51;;;;;;;2.70;2.50;;;;;23.80;100279.00;;;;10377210;28;20216;-79
2023/07/29 12:53:53;;;;;;;4.40;2.72;;;;;25.80;100278.00;;;;10391411;28;20232;-79
2023/07/29 12:58:55;;;;;;;3.15;2.83;;;;;25.20;100268.00;;;;10395557;28;20209;-84
2023/07/29 13:03:56;;;;;;;5.05;3.00;;;;;24.80;100245.00;;;;10392923;28;21935;-80
2023/07/29 13:08:57;;;;;;;5.45;3.17;;;;;24.90;100240.00;;;;10410689;28;20210;-78
2023/07/29 13:14:00;;;;;;;3.30;2.50;;;;;24.90;100236.00;;;;10410877;28;20903;-82
2023/07/29 13:19:01;;;;;;;2.53;2.30;;;;;25.40;100228.00;;;;10391469;28;20709;-78
2023/07/29 13:24:03;;;;;;;2.20;2.00;;;;;26.00;100232.00;;;;10390488;28;20205;-79
2023/07/29 13:29:04;;;;;;;2.47;2.28;;;;;26.40;100236.00;;;;10423552;28;20559;-81
2023/07/29 13:34:09;;;;;;;3.67;2.10;;;;;25.90;100246.00;;;;10403684;28;20214;-80
2023/07/29 13:39:10;;;;;;;2.58;2.30;;;;;25.50;100246.00;;;;10417079;28;20281;-80
2023/07/29 13:44:12;;;;;;;4.10;2.53;;;;;25.70;100246.00;;;;10398882;28;20356;-80
2023/07/29 13:49:13;;;;;;;1.77;1.67;;;;;26.40;100247.00;;;;10405628;28;20219;-85
2023/07/29 13:54:14;;;;;;;3.35;2.10;;;;;26.80;100247.00;;;;10418215;28;20897;-78
2023/07/29 13:59:16;;;;;;;2.40;1.98;;;;;26.70;100241.00;;;;10419770;28;21381;-83
2023/07/29 14:04:17;;;;;;;2.17;2.00;;;;;27.00;100234.00;;;;10395939;28;20224;-77
2023/07/29 14:09:18;;;;;;;1.85;1.73;;;;;27.10;100245.00;;;;10410901;28;20348;-79
2023/07/29 14:14:20;;;;;;;3.83;2.22;;;;;26.50;100255.00;;;;10415376;28;20264;-81
2023/07/29 14:19:24;;;;;;;1.80;1.70;;;;;25.40;100244.00;;;;10411341;28;20213;-78
2023/07/29 14:24:25;;;;;;;2.10;1.73;;;;;25.40;100245.00;;;;10416400;28;20328;-81
2023/07/29 14:29:26;;;;;;;1.85;1.50;;;;;27.00;100252.00;;;;10418874;28;20212;-78
2023/07/29 14:34:29;;;;;;;1.70;1.60;;;;;27.20;100257.00;;;;10392830;28;20224;-79
2023/07/29 14:39:30;;;;;;;1.65;1.55;;;;;27.30;100244.00;;;;10393370;28;20209;-80
2023/07/29 14:44:31;;;;;;;1.50;1.40;;;;;27.60;100255.00;;;;10400786;28;20331;-80
2023/07/29 14:49:32;;;;;;;1.67;1.58;;;;;27.10;100245.00;;;;10413241;28;20294;-79
2023/07/29 14:54:34;;;;;;;1.20;1.20;;;;;26.80;100237.00;;;;10374724;28;20232;-79
2023/07/29 14:59:35;;;;;;;1.40;1.30;;;;;26.50;100251.00;;;;10395937;28;20201;-80
2023/07/29 15:04:36;;;;;;;1.60;1.50;;;;;25.40;100258.00;;;;10399773;28;20286;-78
2023/07/29 15:09:38;;;;;;;2.67;1.70;;;;;25.10;100263.00;;;;10422361;28;20631;-79
2023/07/29 15:14:39;;;;;;;1.67;1.58;;;;;25.90;100270.00;;;;10409816;28;20689;-80
2023/07/29 15:19:40;;;;;;;1.38;1.27;;;;;25.90;100266.00;;;;10398661;28;21743;-76
2023/07/29 15:24:43;;;;;;;2.08;1.30;;;;;25.70;100265.00;;;;10418741;28;20484;-79
2023/07/29 15:29:44;;;;;;;1.00;1.00;;;;;25.70;100261.00;;;;10400457;28;20212;-77
2023/07/29 15:34:46;;;;;;;2.92;1.63;;;;;25.30;100259.00;;;;10413315;28;20696;-79
2023/07/29 15:39:47;;;;;;;1.60;1.25;;;;;25.20;100268.00;;;;10412774;28;21055;-79
2023/07/29 15:44:48;;;;;;;2.35;1.40;;;;;26.50;100274.00;;;;10388747;28;20683;-76
2023/07/29 15:49:50;;;;;;;0.98;0.98;;;;;24.60;100260.00;;;;10392903;28;21068;-78
2023/07/29 15:54:52;;;;;;;1.67;1.40;;;;;23.70;100269.00;;;;10407543;28;20238;-80
2023/07/29 15:59:53;;;;;;;5.35;1.48;;;;;23.10;100276.00;;;;10415956;28;20251;-80
2023/07/29 16:04:54;;;;;;;1.30;1.20;;;;;23.40;100270.00;;;;10390579;28;20280;-78
2023/07/29 16:09:56;;;;;;;1.55;1.45;;;;;22.80;100277.00;;;;10391329;28;20313;-77
2023/07/29 16:14:57;;;;;;;3.60;1.70;;;;;22.60;100277.00;;;;10389414;28;20213;-79
2023/07/29 16:20:00;;;;;;;3.60;1.50;;;;;22.70;100275.00;;;;10415221;28;20229;-80
2023/07/29 16:25:02;;;;;;;1.80;1.65;;;;;22.40;100287.00;;;;10392454;28;20208;-78
2023/07/29 16:30:04;;;;;;;2.25;1.83;;;;;22.30;100298.00;;;;10412457;28;20296;-77
2023/07/29 16:35:06;;;;;;;1.70;1.60;;;;;22.20;100284.00;;;;10414086;28;20224;-77
2023/07/29 16:40:09;;;;;;;2.20;2.00;;;;;22.10;100294.00;;;;10393072;28;20208;-79
2023/07/29 16:45:10;;;;;;;3.28;1.75;;;;;22.20;100287.00;;;;10392732;28;20213;-79
2023/07/29 16:50:12;;;;;;;2.80;1.45;;;;;22.20;100284.00;;;;10377960;28;20327;-82
2023/07/29 16:55:13;;;;;;;1.48;1.27;;;;;22.30;100286.00;;;;10396074;28;20578;-79
2023/07/29 17:00:15;;;;;;;2.00;1.25;;;;;22.40;100282.00;;;;10398116;28;20283;-76
2023/07/29 17:05:16;;;;;;;2.72;1.85;;;;;22.30;100287.00;;;;10419695;28;20323;-78
2023/07/29 17:10:18;;;;;;;1.10;1.00;;;;;21.90;100284.00;;;;10382631;28;20407;-79
2023/07/29 17:15:19;;;;;;;4.25;1.45;;;;;21.80;100287.00;;;;10422352;28;20225;-80
2023/07/29 17:20:20;;;;;;;1.80;1.35;;;;;21.80;100295.00;;;;10404146;28;20388;-81
2023/07/29 17:25:23;;;;;;;3.10;1.40;;;;;21.70;100292.00;;;;10402191;28;20201;-80
2023/07/29 17:30:28;;;;;;;2.90;1.60;;;;;21.50;100298.00;;;;10404919;28;20704;-80
2023/07/29 17:35:32;;;;;;;3.75;1.85;;;;;21.50;100299.00;;;;10424502;28;20233;-80
2023/07/29 17:40:33;;;;;;;6.63;1.60;;;;;21.70;100304.00;;;;10405087;28;20233;-78
2023/07/29 17:45:36;;;;;;;2.70;1.70;;;;;21.70;100307.00;;;;10421130;28;20197;-79
2023/07/29 17:50:38;;;;;;;6.05;2.00;;;;;21.80;100311.00;;;;10414332;28;21334;-77
2023/07/29 17:55:39;;;;;;;4.47;1.92;;;;;21.80;100307.00;;;;10422518;28;20229;-78
2023/07/29 18:00:40;;;;;;;3.97;1.98;;;;;22.00;100311.00;;;;10377678;28;20564;-78
2023/07/29 18:05:42;;;;;;;4.65;1.98;;;;;22.00;100326.00;;;;10398046;28;20279;-80
2023/07/29 18:10:43;;;;;;;5.95;1.90;;;;;21.50;100336.00;;;;10421644;28;20763;-80
2023/07/29 18:15:45;;;;;;;5.75;2.08;;;;;21.20;100346.00;;;;10421428;28;21918;-77
2023/07/29 18:20:48;;;;;;;4.28;1.50;;;;;20.90;100340.00;;;;10394172;28;21515;-77
2023/07/29 18:25:52;;;;;;;6.00;1.92;;;;;20.70;100356.00;;;;10424413;28;20212;-78
2023/07/29 18:30:53;;;;;;;4.43;1.65;;;;;20.50;100352.00;;;;10397982;28;20209;-80
2023/07/29 18:35:55;;;;;;;8.73;2.60;;;;;20.40;100353.00;;;;10414770;28;20607;-77
2023/07/29 18:40:56;;;;;;;3.58;2.20;;;;;20.20;100353.00;;;;10395809;28;20292;-81
2023/07/29 18:45:59;;;;;;;6.30;1.90;;;;;20.00;100368.00;;;;10415409;28;20252;-78
2023/07/29 18:51:00;;;;;;;5.20;1.95;;;;;19.90;100364.00;;;;10378409;28;20213;-77
2023/07/29 18:56:02;;;;;;;6.00;2.17;;;;;19.90;100365.00;;;;10399598;28;20225;-77
2023/07/29 19:01:03;;;;;;;4.63;1.75;;;;;19.80;100372.00;;;;10416679;28;20273;-78
2023/07/29 19:06:04;;;;;;;6.15;1.90;;;;;19.70;100371.00;;;;10415518;28;21044;-77
2023/07/29 19:11:05;;;;;;;8.73;2.20;;;;;19.60;100387.00;;;;10416416;28;20240;-77
2023/07/29 19:16:09;;;;;;;5.88;2.17;;;;;19.50;100392.00;;;;10409458;28;20248;-77
2023/07/29 19:21:11;;;;;;;4.40;1.90;;;;;19.30;100390.00;;;;10407959;28;20242;-78
2023/07/29 19:26:13;;;;;;;6.00;1.70;;;;;19.10;100393.00;;;;10395563;28;20219;-77
2023/07/29 19:31:15;;;;;;;3.30;1.83;;;;;18.90;100393.00;;;;10412044;28;21644;-79
2023/07/29 19:36:16;;;;;;;4.60;2.22;;;;;18.70;100394.00;;;;10389290;28;20229;-76
2023/07/29 19:41:17;;;;;;;5.53;2.20;;;;;18.70;100395.00;;;;10406512;28;20499;-77
2023/07/29 19:46:22;;;;;;;5.95;2.05;;;;;18.60;100406.00;;;;10407899;28;20297;-78
2023/07/29 19:51:39;;;;;;;6.28;2.05;;;;;18.40;100405.00;;;;10406919;28;20205;-78
2023/07/29 19:56:41;;;;;;;6.15;2.22;;;;;18.30;100404.00;;;;10410814;28;20952;-79
2023/07/29 20:01:42;;;;;;;2.25;1.48;;;;;18.10;100406.00;;;;10404851;28;20445;-78
2023/07/29 20:06:44;;;;;;;6.97;2.60;;;;;18.00;100415.00;;;;10407105;28;21003;-79
2023/07/29 20:11:45;;;;;;;6.18;2.05;;;;;17.90;100420.00;;;;10409989;28;20661;-76
2023/07/29 20:16:46;;;;;;;7.93;2.05;;;;;17.80;100418.00;;;;10398409;28;20224;-77
2023/07/29 20:21:48;;;;;;;5.90;2.78;;;;;17.60;100415.00;;;;10412195;28;20301;-78
2023/07/29 20:26:49;;;;;;;5.50;1.80;;;;;17.50;100430.00;;;;10410796;28;20208;-78
2023/07/29 20:31:51;;;;;;;5.35;2.15;;;;;17.40;100423.00;;;;10392011;28;20201;-77
2023/07/29 20:36:52;;;;;;;4.38;2.20;;;;;17.30;100421.00;;;;10419025;28;20950;-78
2023/07/29 20:41:53;;;;;;;4.97;2.15;;;;;17.20;100416.00;;;;10424503;28;20208;-77
2023/07/29 20:46:55;;;;;;;8.43;2.80;;;;;17.10;100420.00;;;;10428061;28;20236;-80
2023/07/29 20:51:57;;;;;;;7.82;2.10;;;;;16.90;100421.00;;;;10426480;28;20193;-79
2023/07/29 20:56:58;;;;;;;10.20;2.58;;;;;16.80;100426.00;;;;10400770;28;20278;-76
2023/07/29 21:01:59;;;;;;;6.22;2.40;;;;;16.80;100428.00;;;;10401680;28;20710;-80
2023/07/29 21:07:00;;;;;;;5.35;2.55;;;;;16.80;100440.00;;;;10425135;28;20198;-78
2023/07/29 21:12:04;;;;;;;6.25;2.70;;;;;16.70;100440.00;;;;10399451;28;20960;-75
2023/07/29 21:17:05;;;;;;;5.95;2.40;;;;;16.50;100437.00;;;;10389073;28;20239;-78
2023/07/29 21:22:07;;;;;;;5.25;2.67;;;;;16.30;100440.00;;;;10419258;28;20238;-77
2023/07/29 21:27:08;;;;;;;8.55;2.90;;;;;16.20;100440.00;;;;10407510;28;21375;-76
2023/07/29 21:32:09;;;;;;;9.45;2.97;;;;;16.10;100448.00;;;;10415466;28;20217;-78
2023/07/29 21:37:11;;;;;;;7.55;2.70;;;;;16.10;100442.00;;;;10380599;28;20301;-77
2023/07/29 21:42:22;;;;;;;10.30;2.90;;;;;16.00;100446.00;;;;10418327;28;20203;-76
2023/07/29 21:47:24;;;;;;;8.80;3.25;;;;;16.00;100448.00;;;;10418198;28;20258;-77
2023/07/29 21:52:25;;;;;;;8.02;2.22;;;;;16.10;100447.00;;;;10424625;28;20304;-79
2023/07/29 21:57:29;;;;;;;7.45;2.20;;;;;16.20;100445.00;;;;10419977;28;20232;-79
2023/07/29 22:02:31;;;;;;;8.85;2.53;;;;;16.40;100454.00;;;;10399834;28;20210;-78
2023/07/29 22:07:33;;;;;;;10.05;3.00;;;;;16.30;100458.00;;;;10397377;28;20221;-79
2023/07/29 22:12:34;;;;;;;8.73;2.92;;;;;16.20;100453.00;;;;10383143;28;20956;-80
2023/07/29 22:17:35;;;;;;;6.10;2.45;;;;;16.10;100456.00;;;;10413556;28;20845;-75
2023/07/29 22:22:37;;;;;;;5.25;3.00;;;;;16.00;100457.00;;;;10416758;28;20638;-76
2023/07/29 22:27:38;;;;;;;6.45;2.50;;;;;15.90;100465.00;;;;10413583;28;20277;-76
2023/07/29 22:32:39;;;;;;;6.80;2.95;;;;;15.90;100471.00;;;;10395013;28;20691;-78
2023/07/29 22:37:41;;;;;;;10.52;2.90;;;;;15.80;100470.00;;;;10423305;28;20236;-76
2023/07/29 22:42:42;;;;;;;8.95;3.28;;;;;15.80;100467.00;;;;10422348;28;20418;-80
2023/07/29 22:47:44;;;;;;;11.38;3.35;;;;;15.70;100468.00;;;;10423595;28;21248;-77
2023/07/29 22:52:45;;;;;;;9.02;2.78;;;;;15.70;100467.00;;;;10394611;28;20198;-77
2023/07/29 22:57:46;;;;;;;9.48;2.65;;;;;15.80;100479.00;;;;10408983;28;20706;-78
2023/07/29 23:02:48;;;;;;;7.60;2.88;;;;;15.90;100479.00;;;;10395250;28;20297;-77
2023/07/29 23:07:49;;;;;;;9.35;3.08;;;;;16.00;100483.00;;;;10411971;28;21103;-77
2023/07/29 23:12:50;;;;;;;7.10;2.88;;;;;16.00;100489.00;;;;10396629;28;20224;-78
2023/07/29 23:17:52;;;;;;;8.48;3.03;;;;;16.00;100490.00;;;;10383044;28;20228;-77
2023/07/29 23:22:53;;;;;;;7.05;3.20;;;;;16.00;100489.00;;;;10411503;28;20212;-78
2023/07/29 23:27:54;;;;;;;11.90;3.17;;;;;15.90;100485.00;;;;10396924;28;20243;-78
2023/07/29 23:32:55;;;;;;;8.90;3.40;;;;;15.80;100491.00;;;;10414653;28;20233;-79
2023/07/29 23:37:57;;;;;;;8.85;3.53;;;;;15.70;100484.00;;;;10414020;28;20260;-78
2023/07/29 23:42:58;;;;;;;5.85;3.15;;;;;15.60;100493.00;;;;10376317;28;20204;-77
2023/07/29 23:48:00;;;;;;;10.07;3.50;;;;;15.50;100496.00;;;;10391474;28;20209;-76
2023/07/29 23:53:02;;;;;;;13.68;3.45;;;;;15.40;100497.00;;;;10416743;28;20212;-77
2023/07/29 23:58:04;;;;;;;9.35;3.20;;;;;15.40;100503.00;;;;10416164;28;20370;-75
